TAM3372 SBGR-SBGO
Flight info
| Callsign | TAM3372 |
|---|---|
| Flight time | 1h 10m |
| Altitude | 34000 |
| Route | ISMOB DCT CORVO |
| Aircraft | A321/M-SDE3FGHIRWY/LB1 |
Departure
| Time | 2026-04-23 12:48 |
|---|---|
| Airport | São Paulo/Guarulhos–Governor André Franco Montoro International Airport (SBGR) |
Arrival
| Time | 2026-04-23 13:59 |
|---|---|
| Airport | Santa Genoveva International Airport (SBGO) |
| Time | Latitude | Longitude | Altitude | Speed | Heading |
|---|---|---|---|---|---|
| 2026-04-23 12:28 | -23.42930 | -46.48222 | 2469 ft | 0 kts | 295° |
| 2026-04-23 12:41 | -23.42934 | -46.48209 | 2469 ft | 2 kts | 273° |
| 2026-04-23 12:42 | -23.42933 | -46.48193 | 2469 ft | 2 kts | 250° |
| 2026-04-23 12:42 | -23.42925 | -46.48179 | 2469 ft | 2 kts | 226° |
| 2026-04-23 12:42 | -23.42913 | -46.48169 | 2469 ft | 2 kts | 202° |
| 2026-04-23 12:42 | -23.42898 | -46.48166 | 2469 ft | 2 kts | 178° |
| 2026-04-23 12:43 | -23.42891 | -46.48167 | 2469 ft | 0 kts | 169° |
| 2026-04-23 12:44 | -23.42892 | -46.48167 | 2469 ft | 1 kts | 169° |
| 2026-04-23 12:45 | -23.42929 | -46.48157 | 2469 ft | 8 kts | 165° |
| 2026-04-23 12:45 | -23.42987 | -46.48141 | 2468 ft | 8 kts | 167° |
| 2026-04-23 12:45 | -23.43039 | -46.48133 | 2468 ft | 7 kts | 173° |
| 2026-04-23 12:45 | -23.43086 | -46.48128 | 2468 ft | 6 kts | 173° |
| 2026-04-23 12:46 | -23.43128 | -46.48120 | 2468 ft | 5 kts | 167° |
| 2026-04-23 12:46 | -23.43163 | -46.48110 | 2468 ft | 4 kts | 164° |
| 2026-04-23 12:46 | -23.43195 | -46.48100 | 2468 ft | 5 kts | 163° |
| 2026-04-23 12:46 | -23.43261 | -46.48079 | 2468 ft | 11 kts | 163° |
| 2026-04-23 12:47 | -23.43335 | -46.48054 | 2468 ft | 7 kts | 162° |
| 2026-04-23 12:47 | -23.43346 | -46.48026 | 2468 ft | 4 kts | 78° |
| 2026-04-23 12:47 | -23.43319 | -46.47925 | 2468 ft | 38 kts | 73° |
| 2026-04-23 12:47 | -23.43175 | -46.47396 | 2469 ft | 105 kts | 73° |
| 2026-04-23 12:48 | -23.42913 | -46.46423 | 2470 ft | 161 kts | 73° |
| 2026-04-23 12:48 | -23.42570 | -46.45148 | 2814 ft | 179 kts | 73° |
| 2026-04-23 12:48 | -23.42123 | -46.43909 | 3400 ft | 180 kts | 57° |
| 2026-04-23 12:48 | -23.41225 | -46.42896 | 3757 ft | 194 kts | 39° |
| 2026-04-23 12:49 | -23.40101 | -46.41984 | 4083 ft | 209 kts | 37° |
| 2026-04-23 12:49 | -23.38877 | -46.41022 | 4402 ft | 226 kts | 37° |
| 2026-04-23 12:49 | -23.37569 | -46.39952 | 4796 ft | 240 kts | 41° |
| 2026-04-23 12:49 | -23.36353 | -46.38699 | 5395 ft | 246 kts | 47° |
| 2026-04-23 12:50 | -23.35117 | -46.37312 | 5787 ft | 263 kts | 47° |
| 2026-04-23 12:50 | -23.33803 | -46.35896 | 6406 ft | 270 kts | 40° |
| 2026-04-23 12:50 | -23.32092 | -46.35055 | 7036 ft | 278 kts | 8° |
| 2026-04-23 12:50 | -23.30175 | -46.35377 | 7695 ft | 287 kts | 336° |
| 2026-04-23 12:51 | -23.28461 | -46.36453 | 8351 ft | 291 kts | 330° |
| 2026-04-23 12:51 | -23.26699 | -46.37566 | 8949 ft | 295 kts | 332° |
| 2026-04-23 12:51 | -23.24889 | -46.38654 | 9541 ft | 299 kts | 333° |
| 2026-04-23 12:51 | -23.23044 | -46.39732 | 10126 ft | 303 kts | 333° |
| 2026-04-23 12:52 | -23.21167 | -46.40808 | 10640 ft | 309 kts | 334° |
| 2026-04-23 12:52 | -23.19213 | -46.41916 | 10925 ft | 323 kts | 334° |
| 2026-04-23 12:52 | -23.17174 | -46.43065 | 11267 ft | 334 kts | 334° |
| 2026-04-23 12:52 | -23.15093 | -46.44235 | 11803 ft | 338 kts | 334° |
| 2026-04-23 12:53 | -23.12999 | -46.45410 | 12371 ft | 340 kts | 334° |
| 2026-04-23 12:53 | -23.10891 | -46.46591 | 12909 ft | 342 kts | 333° |
| 2026-04-23 12:53 | -23.08768 | -46.47779 | 13430 ft | 344 kts | 333° |
| 2026-04-23 12:53 | -23.06631 | -46.48975 | 13934 ft | 347 kts | 333° |
| 2026-04-23 12:54 | -23.04472 | -46.50184 | 14409 ft | 350 kts | 333° |
| 2026-04-23 12:54 | -23.02326 | -46.51385 | 14856 ft | 353 kts | 333° |
| 2026-04-23 12:54 | -23.00124 | -46.52616 | 15304 ft | 357 kts | 333° |
| 2026-04-23 12:54 | -22.97900 | -46.53859 | 15763 ft | 360 kts | 333° |
| 2026-04-23 12:55 | -22.95661 | -46.55108 | 16194 ft | 363 kts | 333° |
| 2026-04-23 12:55 | -22.93407 | -46.56367 | 16620 ft | 366 kts | 333° |
| 2026-04-23 12:55 | -22.91131 | -46.57636 | 17040 ft | 369 kts | 333° |
| 2026-04-23 12:55 | -22.88836 | -46.58917 | 17459 ft | 371 kts | 333° |
| 2026-04-23 12:56 | -22.86522 | -46.60206 | 17857 ft | 374 kts | 332° |
| 2026-04-23 12:56 | -22.84230 | -46.61482 | 18266 ft | 376 kts | 332° |
| 2026-04-23 12:56 | -22.81894 | -46.62782 | 18692 ft | 378 kts | 332° |
| 2026-04-23 12:56 | -22.79549 | -46.64087 | 19117 ft | 379 kts | 332° |
| 2026-04-23 12:57 | -22.77183 | -46.65404 | 19529 ft | 380 kts | 332° |
| 2026-04-23 12:57 | -22.74808 | -46.66726 | 19932 ft | 382 kts | 332° |
| 2026-04-23 12:57 | -22.72432 | -46.68047 | 20313 ft | 384 kts | 331° |
| 2026-04-23 12:57 | -22.70079 | -46.69355 | 20678 ft | 386 kts | 331° |
| 2026-04-23 12:58 | -22.67683 | -46.70688 | 21055 ft | 387 kts | 331° |
| 2026-04-23 12:58 | -22.65277 | -46.72025 | 21432 ft | 389 kts | 331° |
| 2026-04-23 12:58 | -22.62864 | -46.73365 | 21803 ft | 390 kts | 330° |
| 2026-04-23 12:58 | -22.60443 | -46.74710 | 22157 ft | 392 kts | 330° |
| 2026-04-23 12:59 | -22.58010 | -46.76060 | 22516 ft | 393 kts | 330° |
| 2026-04-23 12:59 | -22.55569 | -46.77415 | 22860 ft | 395 kts | 330° |
| 2026-04-23 12:59 | -22.53118 | -46.78776 | 23203 ft | 396 kts | 330° |
| 2026-04-23 12:59 | -22.50656 | -46.80142 | 23537 ft | 398 kts | 330° |
| 2026-04-23 13:00 | -22.48181 | -46.81513 | 23870 ft | 400 kts | 330° |
| 2026-04-23 13:00 | -22.45697 | -46.82889 | 24203 ft | 402 kts | 330° |
| 2026-04-23 13:00 | -22.43201 | -46.84271 | 24530 ft | 403 kts | 330° |
| 2026-04-23 13:00 | -22.40693 | -46.85658 | 24847 ft | 405 kts | 330° |
| 2026-04-23 13:01 | -22.38210 | -46.87032 | 25157 ft | 407 kts | 329° |
| 2026-04-23 13:01 | -22.35683 | -46.88430 | 25470 ft | 408 kts | 329° |
| 2026-04-23 13:01 | -22.33145 | -46.89833 | 25784 ft | 410 kts | 329° |
| 2026-04-23 13:01 | -22.30600 | -46.91240 | 26084 ft | 412 kts | 329° |
| 2026-04-23 13:02 | -22.28041 | -46.92653 | 26382 ft | 413 kts | 329° |
| 2026-04-23 13:02 | -22.25473 | -46.94070 | 26693 ft | 414 kts | 329° |
| 2026-04-23 13:02 | -22.22896 | -46.95493 | 26989 ft | 416 kts | 329° |
| 2026-04-23 13:02 | -22.20310 | -46.96919 | 27270 ft | 418 kts | 329° |
| 2026-04-23 13:03 | -22.17713 | -46.98351 | 27556 ft | 419 kts | 329° |
| 2026-04-23 13:03 | -22.15107 | -46.99788 | 27828 ft | 421 kts | 329° |
| 2026-04-23 13:03 | -22.12488 | -47.01232 | 28095 ft | 423 kts | 329° |
| 2026-04-23 13:03 | -22.09862 | -47.02678 | 28364 ft | 424 kts | 329° |
| 2026-04-23 13:04 | -22.07224 | -47.04132 | 28622 ft | 426 kts | 329° |
| 2026-04-23 13:04 | -22.04577 | -47.05589 | 28884 ft | 427 kts | 329° |
| 2026-04-23 13:04 | -22.01957 | -47.07032 | 29146 ft | 429 kts | 329° |
| 2026-04-23 13:04 | -21.99285 | -47.08502 | 29409 ft | 431 kts | 329° |
| 2026-04-23 13:05 | -21.96606 | -47.09977 | 29665 ft | 433 kts | 329° |
| 2026-04-23 13:05 | -21.93915 | -47.11456 | 29926 ft | 434 kts | 329° |
| 2026-04-23 13:05 | -21.91214 | -47.12941 | 30189 ft | 436 kts | 329° |
| 2026-04-23 13:05 | -21.88491 | -47.14436 | 30444 ft | 437 kts | 329° |
| 2026-04-23 13:06 | -21.83039 | -47.17423 | 30936 ft | 441 kts | 330° |
| 2026-04-23 13:06 | -21.80242 | -47.18817 | 31178 ft | 444 kts | 333° |
| 2026-04-23 13:06 | -21.77358 | -47.20047 | 31398 ft | 447 kts | 337° |
| 2026-04-23 13:07 | -21.74391 | -47.21104 | 31622 ft | 450 kts | 340° |
| 2026-04-23 13:07 | -21.71379 | -47.22050 | 31911 ft | 450 kts | 341° |
| 2026-04-23 13:07 | -21.68414 | -47.22971 | 32244 ft | 448 kts | 341° |
| 2026-04-23 13:07 | -21.65414 | -47.23902 | 32562 ft | 447 kts | 341° |
| 2026-04-23 13:08 | -21.62417 | -47.24833 | 32813 ft | 448 kts | 341° |
| 2026-04-23 13:08 | -21.59411 | -47.25767 | 33041 ft | 449 kts | 341° |
| 2026-04-23 13:08 | -21.56403 | -47.26702 | 33268 ft | 450 kts | 341° |
| 2026-04-23 13:08 | -21.53388 | -47.27641 | 33493 ft | 451 kts | 341° |
| 2026-04-23 13:09 | -21.50367 | -47.28582 | 33702 ft | 452 kts | 341° |
| 2026-04-23 13:09 | -21.47340 | -47.29524 | 33927 ft | 452 kts | 341° |
| 2026-04-23 13:09 | -21.44307 | -47.30467 | 34134 ft | 453 kts | 341° |
| 2026-04-23 13:10 | -21.38209 | -47.32364 | 34171 ft | 457 kts | 341° |
| 2026-04-23 13:10 | -21.32131 | -47.34251 | 34178 ft | 457 kts | 341° |
| 2026-04-23 13:11 | -21.26006 | -47.36151 | 34175 ft | 457 kts | 341° |
| 2026-04-23 13:11 | -21.19886 | -47.38050 | 34175 ft | 457 kts | 341° |
| 2026-04-23 13:12 | -21.13766 | -47.39946 | 34173 ft | 457 kts | 341° |
| 2026-04-23 13:12 | -21.07641 | -47.41842 | 34172 ft | 457 kts | 341° |
| 2026-04-23 13:13 | -21.01505 | -47.43739 | 34170 ft | 458 kts | 341° |
| 2026-04-23 13:13 | -20.95364 | -47.45638 | 34170 ft | 458 kts | 341° |
| 2026-04-23 13:14 | -20.89256 | -47.47525 | 34171 ft | 458 kts | 341° |
| 2026-04-23 13:14 | -20.83120 | -47.49417 | 34173 ft | 458 kts | 341° |
| 2026-04-23 13:15 | -20.76983 | -47.51310 | 34164 ft | 458 kts | 341° |
| 2026-04-23 13:15 | -20.70843 | -47.53200 | 34164 ft | 458 kts | 341° |
| 2026-04-23 13:16 | -20.64750 | -47.55076 | 34165 ft | 458 kts | 341° |
| 2026-04-23 13:16 | -20.58602 | -47.56967 | 34166 ft | 459 kts | 342° |
| 2026-04-23 13:17 | -20.52441 | -47.58860 | 34169 ft | 460 kts | 342° |
| 2026-04-23 13:17 | -20.46276 | -47.60752 | 34173 ft | 460 kts | 342° |
| 2026-04-23 13:18 | -20.40114 | -47.62642 | 34172 ft | 460 kts | 342° |
| 2026-04-23 13:18 | -20.33954 | -47.64530 | 34173 ft | 460 kts | 342° |
| 2026-04-23 13:19 | -20.27792 | -47.66417 | 34173 ft | 460 kts | 342° |
| 2026-04-23 13:19 | -20.21629 | -47.68301 | 34162 ft | 460 kts | 342° |
| 2026-04-23 13:20 | -20.15507 | -47.70173 | 34153 ft | 460 kts | 342° |
| 2026-04-23 13:20 | -20.09337 | -47.72060 | 34153 ft | 460 kts | 342° |
| 2026-04-23 13:21 | -20.03168 | -47.73943 | 34141 ft | 460 kts | 342° |
| 2026-04-23 13:21 | -19.96993 | -47.75826 | 34144 ft | 460 kts | 342° |
| 2026-04-23 13:22 | -19.90826 | -47.77705 | 34155 ft | 460 kts | 342° |
| 2026-04-23 13:22 | -19.84651 | -47.79585 | 34158 ft | 461 kts | 343° |
| 2026-04-23 13:23 | -19.78476 | -47.81463 | 34165 ft | 460 kts | 343° |
| 2026-04-23 13:23 | -19.72339 | -47.83329 | 34171 ft | 461 kts | 342° |
| 2026-04-23 13:24 | -19.66149 | -47.85210 | 34174 ft | 462 kts | 343° |
| 2026-04-23 13:24 | -19.59960 | -47.87089 | 34174 ft | 461 kts | 343° |
| 2026-04-23 13:25 | -19.53777 | -47.88964 | 34176 ft | 461 kts | 343° |
| 2026-04-23 13:25 | -19.47587 | -47.90840 | 34181 ft | 462 kts | 343° |
| 2026-04-23 13:26 | -19.41393 | -47.92715 | 34182 ft | 462 kts | 343° |
| 2026-04-23 13:26 | -19.35196 | -47.94590 | 34183 ft | 462 kts | 343° |
| 2026-04-23 13:27 | -19.28995 | -47.96465 | 34179 ft | 462 kts | 343° |
| 2026-04-23 13:27 | -19.22833 | -47.98328 | 34180 ft | 462 kts | 343° |
| 2026-04-23 13:28 | -19.16617 | -48.00205 | 34176 ft | 462 kts | 343° |
| 2026-04-23 13:28 | -19.10420 | -48.02074 | 34170 ft | 462 kts | 343° |
| 2026-04-23 13:29 | -19.04223 | -48.03943 | 34166 ft | 462 kts | 343° |
| 2026-04-23 13:29 | -18.98022 | -48.05813 | 34161 ft | 462 kts | 343° |
| 2026-04-23 13:30 | -18.91822 | -48.07685 | 34159 ft | 462 kts | 343° |
| 2026-04-23 13:30 | -18.85756 | -48.09877 | 34164 ft | 463 kts | 340° |
| 2026-04-23 13:31 | -18.79686 | -48.12198 | 34167 ft | 463 kts | 339° |
| 2026-04-23 13:31 | -18.73616 | -48.14519 | 34167 ft | 463 kts | 340° |
| 2026-04-23 13:32 | -18.67548 | -48.16835 | 34161 ft | 463 kts | 340° |
| 2026-04-23 13:32 | -18.61478 | -48.19150 | 34162 ft | 463 kts | 340° |
| 2026-04-23 13:33 | -18.55409 | -48.21462 | 34165 ft | 463 kts | 340° |
| 2026-04-23 13:33 | -18.49339 | -48.23772 | 34168 ft | 463 kts | 340° |
| 2026-04-23 13:34 | -18.43271 | -48.26080 | 34167 ft | 463 kts | 340° |
| 2026-04-23 13:34 | -18.37239 | -48.28375 | 34162 ft | 463 kts | 340° |
| 2026-04-23 13:35 | -18.31160 | -48.30685 | 34154 ft | 463 kts | 340° |
| 2026-04-23 13:35 | -18.25083 | -48.32993 | 34144 ft | 463 kts | 340° |
| 2026-04-23 13:36 | -18.19008 | -48.35295 | 34140 ft | 462 kts | 340° |
| 2026-04-23 13:36 | -18.12942 | -48.37591 | 34141 ft | 462 kts | 340° |
| 2026-04-23 13:37 | -18.06877 | -48.39888 | 34139 ft | 462 kts | 340° |
| 2026-04-23 13:37 | -18.00808 | -48.42188 | 34138 ft | 462 kts | 340° |
| 2026-04-23 13:37 | -17.97772 | -48.43338 | 33962 ft | 463 kts | 340° |
| 2026-04-23 13:38 | -17.94728 | -48.44491 | 33675 ft | 465 kts | 340° |
| 2026-04-23 13:38 | -17.91716 | -48.45631 | 33346 ft | 467 kts | 340° |
| 2026-04-23 13:38 | -17.88649 | -48.46791 | 32818 ft | 468 kts | 340° |
| 2026-04-23 13:38 | -17.85572 | -48.47956 | 32210 ft | 469 kts | 340° |
| 2026-04-23 13:39 | -17.82489 | -48.49124 | 31515 ft | 470 kts | 341° |
| 2026-04-23 13:39 | -17.79410 | -48.50289 | 30783 ft | 471 kts | 341° |
| 2026-04-23 13:39 | -17.76324 | -48.51455 | 30094 ft | 470 kts | 341° |
| 2026-04-23 13:39 | -17.73292 | -48.52697 | 29607 ft | 465 kts | 338° |
| 2026-04-23 13:40 | -17.70366 | -48.54116 | 29119 ft | 460 kts | 334° |
| 2026-04-23 13:40 | -17.67563 | -48.55712 | 28660 ft | 456 kts | 330° |
| 2026-04-23 13:40 | -17.64862 | -48.57429 | 28174 ft | 451 kts | 329° |
| 2026-04-23 13:40 | -17.62199 | -48.59153 | 27684 ft | 447 kts | 329° |
| 2026-04-23 13:41 | -17.59563 | -48.60863 | 27196 ft | 443 kts | 329° |
| 2026-04-23 13:41 | -17.56951 | -48.62555 | 26717 ft | 439 kts | 329° |
| 2026-04-23 13:41 | -17.54362 | -48.64228 | 26239 ft | 435 kts | 329° |
| 2026-04-23 13:41 | -17.51794 | -48.65884 | 25765 ft | 431 kts | 330° |
| 2026-04-23 13:42 | -17.49250 | -48.67523 | 25292 ft | 427 kts | 330° |
| 2026-04-23 13:42 | -17.46763 | -48.69122 | 24831 ft | 423 kts | 330° |
| 2026-04-23 13:42 | -17.44264 | -48.70727 | 24373 ft | 419 kts | 330° |
| 2026-04-23 13:42 | -17.41787 | -48.72316 | 23914 ft | 415 kts | 330° |
| 2026-04-23 13:43 | -17.39330 | -48.73893 | 23458 ft | 412 kts | 330° |
| 2026-04-23 13:43 | -17.36894 | -48.75456 | 23004 ft | 409 kts | 330° |
| 2026-04-23 13:43 | -17.34477 | -48.77007 | 22547 ft | 405 kts | 330° |
| 2026-04-23 13:43 | -17.32077 | -48.78548 | 22100 ft | 403 kts | 330° |
| 2026-04-23 13:44 | -17.29694 | -48.80077 | 21655 ft | 400 kts | 330° |
| 2026-04-23 13:44 | -17.27324 | -48.81596 | 21201 ft | 398 kts | 330° |
| 2026-04-23 13:44 | -17.24965 | -48.83110 | 20745 ft | 396 kts | 330° |
| 2026-04-23 13:44 | -17.22614 | -48.84617 | 20288 ft | 395 kts | 330° |
| 2026-04-23 13:45 | -17.20274 | -48.86118 | 19833 ft | 393 kts | 330° |
| 2026-04-23 13:45 | -17.17941 | -48.87614 | 19374 ft | 392 kts | 330° |
| 2026-04-23 13:45 | -17.15617 | -48.89104 | 18914 ft | 391 kts | 330° |
| 2026-04-23 13:45 | -17.13297 | -48.90589 | 18452 ft | 390 kts | 330° |
| 2026-04-23 13:46 | -17.10985 | -48.92069 | 17989 ft | 388 kts | 330° |
| 2026-04-23 13:46 | -17.08681 | -48.93544 | 17527 ft | 387 kts | 330° |
| 2026-04-23 13:46 | -17.06415 | -48.94997 | 17071 ft | 386 kts | 330° |
| 2026-04-23 13:46 | -17.04124 | -48.96464 | 16609 ft | 385 kts | 330° |
| 2026-04-23 13:47 | -17.01838 | -48.97928 | 16144 ft | 384 kts | 330° |
| 2026-04-23 13:47 | -16.99556 | -48.99388 | 15679 ft | 383 kts | 330° |
| 2026-04-23 13:47 | -16.97284 | -49.00838 | 15217 ft | 382 kts | 330° |
| 2026-04-23 13:47 | -16.95017 | -49.02284 | 14756 ft | 380 kts | 330° |
| 2026-04-23 13:48 | -16.92759 | -49.03724 | 14293 ft | 379 kts | 330° |
| 2026-04-23 13:48 | -16.90507 | -49.05161 | 13827 ft | 378 kts | 330° |
| 2026-04-23 13:48 | -16.88265 | -49.06592 | 13360 ft | 377 kts | 330° |
| 2026-04-23 13:48 | -16.86033 | -49.08017 | 12893 ft | 375 kts | 330° |
| 2026-04-23 13:49 | -16.83807 | -49.09436 | 12432 ft | 374 kts | 330° |
| 2026-04-23 13:49 | -16.81659 | -49.10959 | 11952 ft | 374 kts | 321° |
| 2026-04-23 13:49 | -16.79911 | -49.12954 | 11487 ft | 371 kts | 306° |
| 2026-04-23 13:49 | -16.78562 | -49.15225 | 11035 ft | 365 kts | 301° |
| 2026-04-23 13:50 | -16.77320 | -49.17496 | 10573 ft | 356 kts | 300° |
| 2026-04-23 13:50 | -16.76116 | -49.19710 | 10108 ft | 347 kts | 300° |
| 2026-04-23 13:50 | -16.74934 | -49.21861 | 9697 ft | 337 kts | 301° |
| 2026-04-23 13:50 | -16.73767 | -49.23959 | 9312 ft | 333 kts | 301° |
| 2026-04-23 13:51 | -16.72631 | -49.25988 | 9161 ft | 322 kts | 301° |
| 2026-04-23 13:51 | -16.71525 | -49.27961 | 9154 ft | 307 kts | 301° |
| 2026-04-23 13:51 | -16.70469 | -49.29842 | 9102 ft | 295 kts | 301° |
| 2026-04-23 13:51 | -16.69431 | -49.31687 | 8768 ft | 294 kts | 301° |
| 2026-04-23 13:52 | -16.68397 | -49.33525 | 8455 ft | 293 kts | 301° |
| 2026-04-23 13:52 | -16.67371 | -49.35351 | 8155 ft | 291 kts | 301° |
| 2026-04-23 13:52 | -16.66352 | -49.37163 | 7864 ft | 288 kts | 301° |
| 2026-04-23 13:52 | -16.65342 | -49.38959 | 7581 ft | 286 kts | 301° |
| 2026-04-23 13:53 | -16.64336 | -49.40738 | 7301 ft | 283 kts | 303° |
| 2026-04-23 13:53 | -16.63022 | -49.42208 | 7006 ft | 274 kts | 333° |
| 2026-04-23 13:53 | -16.61234 | -49.42674 | 6754 ft | 261 kts | 8° |
| 2026-04-23 13:53 | -16.59579 | -49.42045 | 6536 ft | 250 kts | 36° |
| 2026-04-23 13:54 | -16.58197 | -49.40989 | 6291 ft | 241 kts | 39° |
| 2026-04-23 13:54 | -16.56890 | -49.39988 | 6041 ft | 231 kts | 37° |
| 2026-04-23 13:54 | -16.55595 | -49.39072 | 5857 ft | 216 kts | 38° |
| 2026-04-23 13:54 | -16.54701 | -49.37941 | 5612 ft | 197 kts | 74° |
| 2026-04-23 13:55 | -16.54833 | -49.36600 | 5405 ft | 187 kts | 115° |
| 2026-04-23 13:55 | -16.55535 | -49.35511 | 5256 ft | 175 kts | 122° |
| 2026-04-23 13:55 | -16.56197 | -49.34468 | 4962 ft | 172 kts | 120° |
| 2026-04-23 13:55 | -16.56820 | -49.33426 | 4711 ft | 166 kts | 120° |
| 2026-04-23 13:56 | -16.57407 | -49.32413 | 4485 ft | 160 kts | 119° |
| 2026-04-23 13:56 | -16.57976 | -49.31414 | 4281 ft | 160 kts | 119° |
| 2026-04-23 13:56 | -16.58540 | -49.30417 | 4106 ft | 160 kts | 119° |
| 2026-04-23 13:56 | -16.59100 | -49.29424 | 3871 ft | 156 kts | 119° |
| 2026-04-23 13:57 | -16.59647 | -49.28450 | 3656 ft | 155 kts | 119° |
| 2026-04-23 13:57 | -16.60191 | -49.27483 | 3453 ft | 154 kts | 120° |
| 2026-04-23 13:57 | -16.60732 | -49.26520 | 3248 ft | 153 kts | 120° |
| 2026-04-23 13:57 | -16.61263 | -49.25554 | 3049 ft | 153 kts | 118° |
| 2026-04-23 13:58 | -16.61799 | -49.24596 | 2850 ft | 153 kts | 120° |
| 2026-04-23 13:58 | -16.62328 | -49.23654 | 2653 ft | 152 kts | 120° |
| 2026-04-23 13:58 | -16.62859 | -49.22703 | 2473 ft | 149 kts | 120° |
| 2026-04-23 13:58 | -16.63284 | -49.21947 | 2468 ft | 79 kts | 120° |
| 2026-04-23 13:59 | -16.63511 | -49.21542 | 2468 ft | 60 kts | 120° |
| 2026-04-23 13:59 | -16.63683 | -49.21239 | 2468 ft | 28 kts | 120° |
| 2026-04-23 13:59 | -16.63740 | -49.21133 | 2468 ft | 13 kts | 105° |
| 2026-04-23 13:59 | -16.63690 | -49.21068 | 2468 ft | 12 kts | 30° |
| 2026-04-23 14:00 | -16.63643 | -49.21039 | 2468 ft | 11 kts | 31° |
| 2026-04-23 14:00 | -16.63552 | -49.20995 | 2468 ft | 10 kts | 0° |
| 2026-04-23 14:00 | -16.63475 | -49.21010 | 2468 ft | 13 kts | 346° |
| 2026-04-23 14:00 | -16.63382 | -49.21047 | 2468 ft | 14 kts | 316° |
| 2026-04-23 14:01 | -16.63331 | -49.21128 | 2468 ft | 12 kts | 300° |
| 2026-04-23 14:01 | -16.63283 | -49.21214 | 2468 ft | 14 kts | 300° |
| 2026-04-23 14:01 | -16.63236 | -49.21299 | 2468 ft | 12 kts | 300° |
| 2026-04-23 14:01 | -16.63193 | -49.21375 | 2468 ft | 11 kts | 300° |
| 2026-04-23 14:02 | -16.63152 | -49.21447 | 2468 ft | 10 kts | 300° |
| 2026-04-23 14:02 | -16.63110 | -49.21508 | 2468 ft | 9 kts | 310° |
| 2026-04-23 14:02 | -16.63075 | -49.21527 | 2468 ft | 4 kts | 21° |
| 2026-04-23 14:02 | -16.63057 | -49.21503 | 2468 ft | 3 kts | 53° |
| 2026-04-23 14:03 | -16.63042 | -49.21485 | 2468 ft | 0 kts | 49° |
| 2026-04-23 14:03 | -16.63041 | -49.21484 | 2468 ft | 0 kts | 49° |